Time;durP1;ratioP1;P1;durP2;ratioP2;P2;SDS_P1;SDS_P2;PMS_P1;PMS_P2;Temp;Humidity;BMP_temperature;BMP_pressure;BME280_temperature;BME280_humidity;BME280_pressure;Samples;Min_cycle;Max_cycle;Signal;HPM_P1;HPM_P2
2023/12/18 00:01:07;;;;;;;26.38;12.25;;;8.90;99.90;;;;;;5014182;28;20978;-90
2023/12/18 00:03:32;;;;;;;26.77;13.47;;;8.80;99.90;;;;;;5029177;28;20427;-91
2023/12/18 00:05:58;;;;;;;27.07;12.33;;;8.60;99.90;;;;;;5013573;28;20900;-91
2023/12/18 00:08:24;;;;;;;26.10;10.68;;;8.50;99.90;;;;;;5013462;28;20405;-92
2023/12/18 00:10:50;;;;;;;28.33;12.20;;;8.10;99.90;;;;;;5013343;28;20407;-92
2023/12/18 00:13:15;;;;;;;23.10;11.70;;;8.40;99.90;;;;;;5016811;28;20402;-91
2023/12/18 00:15:41;;;;;;;26.10;12.13;;;8.40;99.90;;;;;;5015923;28;20427;-92
2023/12/18 00:18:07;;;;;;;26.75;12.05;;;8.50;99.90;;;;;;5016881;28;20970;-91
2023/12/18 00:20:33;;;;;;;24.35;11.32;;;8.50;99.90;;;;;;5015605;28;20954;-91
2023/12/18 00:22:59;;;;;;;23.70;10.98;;;8.30;99.90;;;;;;5016932;28;20435;-91
2023/12/18 00:25:25;;;;;;;25.23;11.27;;;8.30;99.90;;;;;;5015245;28;20401;-91
2023/12/18 00:27:51;;;;;;;23.53;10.87;;;9.00;99.90;;;;;;5015918;28;20439;-89
2023/12/18 00:30:16;;;;;;;25.93;12.00;;;8.60;99.90;;;;;;5016293;28;20414;-91
2023/12/18 00:32:42;;;;;;;22.03;11.10;;;8.50;99.90;;;;;;5016684;28;20439;-90
2023/12/18 00:35:08;;;;;;;22.70;10.73;;;8.50;99.90;;;;;;5017796;28;20413;-89
2023/12/18 00:37:33;;;;;;;23.23;10.23;;;8.50;99.90;;;;;;5015632;28;20452;-91
2023/12/18 00:39:59;;;;;;;21.70;10.40;;;8.70;99.90;;;;;;5033533;28;20424;-92
2023/12/18 00:42:25;;;;;;;22.40;9.73;;;8.50;99.90;;;;;;5015951;28;20886;-89
2023/12/18 00:44:51;;;;;;;23.08;9.40;;;8.40;99.90;;;;;;5017211;28;20461;-91
2023/12/18 00:47:18;;;;;;;20.50;9.30;;;8.80;99.90;;;;;;5016111;28;20946;-91
2023/12/18 00:49:44;;;;;;;23.10;9.25;;;8.70;99.90;;;;;;5016380;28;20413;-91
2023/12/18 00:52:10;;;;;;;22.40;8.80;;;8.60;99.90;;;;;;5016886;28;20401;-91
2023/12/18 00:54:35;;;;;;;19.38;5.75;;;8.60;99.90;;;;;;5015630;28;20417;-87
2023/12/18 00:57:01;;;;;;;16.13;4.27;;;8.60;99.90;;;;;;5016521;28;20433;-90
2023/12/18 00:59:26;;;;;;;17.15;4.50;;;8.70;99.90;;;;;;5015172;28;20908;-89
2023/12/18 01:01:52;;;;;;;16.33;3.90;;;8.70;99.90;;;;;;5016427;28;20397;-88
2023/12/18 01:04:17;;;;;;;16.37;4.10;;;9.20;99.90;;;;;;5014919;28;20397;-90
2023/12/18 01:06:44;;;;;;;14.27;3.90;;;8.90;99.90;;;;;;5016067;28;20408;-89
2023/12/18 01:09:10;;;;;;;17.38;4.13;;;9.10;99.90;;;;;;5015971;28;20394;-88
2023/12/18 01:11:35;;;;;;;17.65;4.10;;;9.00;99.90;;;;;;5015295;28;20494;-87
2023/12/18 01:14:01;;;;;;;15.23;3.53;;;9.10;99.90;;;;;;5016056;28;20429;-88
2023/12/18 01:16:27;;;;;;;17.03;3.53;;;9.10;99.90;;;;;;5014697;28;21147;-90
2023/12/18 01:18:52;;;;;;;16.52;3.38;;;9.20;99.90;;;;;;5016338;28;20417;-90
2023/12/18 01:21:18;;;;;;;15.05;3.17;;;9.40;99.90;;;;;;5014875;28;20406;-89
2023/12/18 01:23:44;;;;;;;16.03;3.57;;;9.50;99.90;;;;;;5014524;28;20412;-88
2023/12/18 01:26:09;;;;;;;15.63;3.60;;;9.20;99.90;;;;;;5031611;28;20455;-89
2023/12/18 01:28:35;;;;;;;14.55;3.47;;;9.20;99.90;;;;;;5015545;28;20414;-87
2023/12/18 01:31:01;;;;;;;15.90;4.10;;;9.30;99.90;;;;;;5015424;28;20406;-89
2023/12/18 01:33:26;;;;;;;14.27;3.60;;;9.50;99.90;;;;;;5014786;28;20985;-92
2023/12/18 01:35:52;;;;;;;12.47;3.23;;;9.60;99.90;;;;;;5016036;28;20459;-92
2023/12/18 01:38:17;;;;;;;15.23;3.67;;;9.30;99.90;;;;;;5014713;28;20792;-87
2023/12/18 01:40:44;;;;;;;14.13;3.38;;;9.30;99.90;;;;;;5032006;28;20448;-90
2023/12/18 01:43:23;;;;;;;14.02;3.45;;;9.80;99.90;;;;;;5014860;28;20397;-90
2023/12/18 01:45:55;;;;;;;13.98;3.20;;;9.40;99.90;;;;;;5031450;28;20413;-86
2023/12/18 01:48:21;;;;;;;13.57;3.28;;;9.30;99.90;;;;;;5015301;28;20401;-91
2023/12/18 01:50:47;;;;;;;13.55;3.53;;;9.50;99.90;;;;;;5014707;28;20405;-88
2023/12/18 01:53:13;;;;;;;14.13;3.07;;;9.60;99.90;;;;;;5015275;28;20443;-90
2023/12/18 01:55:39;;;;;;;13.70;3.28;;;9.40;99.90;;;;;;5014272;28;20417;-89
2023/12/18 01:58:05;;;;;;;13.13;3.20;;;9.40;99.90;;;;;;5015218;28;20425;-90
2023/12/18 02:00:30;;;;;;;17.02;3.13;;;9.40;99.90;;;;;;5014734;28;20820;-90
2023/12/18 02:02:57;;;;;;;14.03;3.43;;;9.60;99.90;;;;;;5014827;28;20406;-90
2023/12/18 02:05:23;;;;;;;14.77;3.27;;;9.50;99.90;;;;;;5014380;28;20409;-89
2023/12/18 02:07:49;;;;;;;14.70;3.17;;;9.40;99.90;;;;;;5014096;28;20731;-91
2023/12/18 02:10:16;;;;;;;12.38;2.72;;;9.40;99.90;;;;;;5031726;28;20468;-91
2023/12/18 02:12:41;;;;;;;13.07;2.85;;;9.50;99.90;;;;;;5013791;28;20492;-90
2023/12/18 02:15:07;;;;;;;14.02;3.03;;;9.50;99.90;;;;;;5031620;28;20449;-90
2023/12/18 02:17:33;;;;;;;13.73;2.50;;;9.50;99.90;;;;;;5013671;28;20902;-91
2023/12/18 02:20:08;;;;;;;12.90;3.40;;;9.50;99.90;;;;;;5015482;28;20393;-92
2023/12/18 02:23:03;;;;;;;12.27;2.72;;;9.50;99.90;;;;;;5014307;28;20413;-91
2023/12/18 02:25:29;;;;;;;13.82;2.53;;;9.50;99.90;;;;;;5005135;28;20421;-90
2023/12/18 02:27:55;;;;;;;13.67;2.63;;;9.70;99.90;;;;;;5015267;28;20983;-91
2023/12/18 02:30:24;;;;;;;13.63;2.90;;;9.50;99.90;;;;;;5014193;28;20519;-91
2023/12/18 02:32:50;;;;;;;13.07;2.70;;;9.50;99.90;;;;;;5014614;28;20462;-90
2023/12/18 02:35:16;;;;;;;14.88;2.95;;;9.50;99.90;;;;;;5014126;28;20405;-90
2023/12/18 02:37:41;;;;;;;13.70;2.83;;;9.60;99.90;;;;;;5030549;28;20494;-91
2023/12/18 02:40:07;;;;;;;14.00;2.60;;;9.60;99.90;;;;;;5031422;28;20397;-91
2023/12/18 02:42:33;;;;;;;11.47;2.30;;;9.50;99.90;;;;;;5013578;28;21260;-90
2023/12/18 02:45:00;;;;;;;13.03;2.97;;;9.80;99.90;;;;;;5031627;28;20398;-91
2023/12/18 02:47:26;;;;;;;13.65;3.42;;;9.80;99.90;;;;;;5013452;28;20412;-91
2023/12/18 02:49:52;;;;;;;13.57;2.90;;;9.90;99.90;;;;;;5014824;28;20698;-90
2023/12/18 02:52:18;;;;;;;12.25;2.97;;;9.50;99.90;;;;;;5013716;28;20468;-92
2023/12/18 02:54:44;;;;;;;15.27;2.95;;;9.60;99.90;;;;;;5014643;28;20492;-90
2023/12/18 02:57:10;;;;;;;11.00;3.10;;;9.50;99.90;;;;;;5014369;28;20425;-90
2023/12/18 02:59:35;;;;;;;15.38;3.03;;;9.30;99.90;;;;;;5013729;28;20406;-90
2023/12/18 03:02:01;;;;;;;15.07;3.07;;;10.10;99.90;;;;;;5014664;28;20760;-90
2023/12/18 03:04:27;;;;;;;12.85;2.80;;;9.50;99.90;;;;;;5013289;28;20463;-89
2023/12/18 03:06:53;;;;;;;13.30;2.90;;;9.80;99.90;;;;;;5015226;28;21112;-92
2023/12/18 03:09:18;;;;;;;12.73;2.80;;;9.60;99.90;;;;;;5013324;28;21054;-90
2023/12/18 03:11:44;;;;;;;12.90;3.00;;;9.80;99.90;;;;;;5014638;28;20875;-91
2023/12/18 03:14:11;;;;;;;12.70;3.08;;;9.60;99.90;;;;;;5055897;28;20771;-91
2023/12/18 03:16:37;;;;;;;14.07;3.28;;;10.10;99.90;;;;;;5033069;28;20424;-91
2023/12/18 03:19:03;;;;;;;14.88;2.85;;;9.30;99.90;;;;;;5027228;28;20432;-91
2023/12/18 03:21:29;;;;;;;14.00;3.03;;;9.50;99.90;;;;;;5021792;28;20404;-93
2023/12/18 03:23:54;;;;;;;13.53;3.13;;;9.40;99.90;;;;;;5050855;28;20481;-92
2023/12/18 03:26:20;;;;;;;12.47;3.23;;;9.40;99.90;;;;;;5032542;28;20435;-91
2023/12/18 03:28:46;;;;;;;15.90;3.10;;;9.40;99.90;;;;;;5033955;28;20498;-89
2023/12/18 03:31:11;;;;;;;14.15;3.53;;;9.40;99.90;;;;;;5032875;28;20465;-91
2023/12/18 03:33:38;;;;;;;13.87;3.63;;;9.40;99.90;;;;;;5033276;28;20826;-91
2023/12/18 03:36:05;;;;;;;12.43;3.13;;;9.40;99.90;;;;;;5019575;28;20405;-91
2023/12/18 03:38:30;;;;;;;12.37;3.37;;;9.30;99.90;;;;;;5013506;28;20405;-92
2023/12/18 03:40:56;;;;;;;13.13;3.30;;;9.40;99.90;;;;;;5014287;28;20503;-91
2023/12/18 03:43:25;;;;;;;13.75;3.20;;;9.70;99.90;;;;;;5012564;28;20835;-90
2023/12/18 03:45:51;;;;;;;12.75;3.60;;;9.70;99.90;;;;;;5014193;28;20435;-91
2023/12/18 03:48:18;;;;;;;14.00;3.22;;;9.50;99.90;;;;;;5016498;28;20880;-91
2023/12/18 03:50:44;;;;;;;20.40;3.88;;;9.60;99.90;;;;;;5017726;28;21108;-90
2023/12/18 03:53:10;;;;;;;12.73;3.53;;;9.40;99.90;;;;;;5017525;28;20512;-89
2023/12/18 03:55:35;;;;;;;15.80;3.57;;;9.50;99.90;;;;;;5034085;28;20545;-92
2023/12/18 03:58:01;;;;;;;13.47;3.60;;;10.10;99.90;;;;;;5017606;28;20457;-91
2023/12/18 04:00:27;;;;;;;14.40;3.78;;;9.20;99.90;;;;;;5016846;28;20410;-88
2023/12/18 04:02:53;;;;;;;14.60;4.05;;;9.70;99.90;;;;;;5034641;28;20433;-92
2023/12/18 04:05:18;;;;;;;16.38;4.15;;;9.10;99.90;;;;;;5016992;28;20412;-90
2023/12/18 04:07:44;;;;;;;18.30;4.67;;;9.50;99.90;;;;;;5018117;28;20417;-91
2023/12/18 04:10:10;;;;;;;16.77;4.65;;;9.40;99.90;;;;;;5016909;28;20389;-92
2023/12/18 04:12:36;;;;;;;18.17;5.25;;;9.30;99.90;;;;;;5033809;28;20495;-91
2023/12/18 04:15:02;;;;;;;18.63;4.70;;;9.20;99.90;;;;;;5017263;28;20831;-91
2023/12/18 04:17:27;;;;;;;16.33;4.68;;;9.20;99.90;;;;;;5016374;28;20428;-92
2023/12/18 04:19:53;;;;;;;16.90;4.90;;;9.20;99.90;;;;;;5017988;28;20440;-90
2023/12/18 04:22:19;;;;;;;17.07;4.60;;;9.70;99.90;;;;;;5016315;28;20448;-91
2023/12/18 04:24:44;;;;;;;16.38;4.57;;;9.20;99.90;;;;;;5018028;28;20475;-92
2023/12/18 04:27:10;;;;;;;15.47;4.93;;;9.30;99.90;;;;;;5016304;28;20423;-92
2023/12/18 04:29:37;;;;;;;17.42;5.70;;;9.70;99.90;;;;;;5017313;28;20572;-91
2023/12/18 04:32:06;;;;;;;19.80;5.65;;;9.00;99.90;;;;;;5016485;28;20409;-90
2023/12/18 04:34:32;;;;;;;12.75;5.30;;;8.90;99.90;;;;;;5016898;28;20409;-91
2023/12/18 04:36:58;;;;;;;19.02;5.68;;;9.20;99.90;;;;;;5017293;28;20502;-90
2023/12/18 04:39:23;;;;;;;17.70;6.00;;;9.30;99.90;;;;;;5016213;28;20403;-92
2023/12/18 04:41:49;;;;;;;15.33;5.23;;;9.10;99.90;;;;;;5017482;28;20480;-91
2023/12/18 04:44:15;;;;;;;14.88;5.57;;;9.00;99.90;;;;;;5016134;28;20402;-93
2023/12/18 04:46:41;;;;;;;16.92;5.75;;;9.30;99.90;;;;;;5017115;28;20492;-91
2023/12/18 04:49:06;;;;;;;18.63;5.60;;;9.00;99.90;;;;;;5016395;28;20922;-91
2023/12/18 04:51:32;;;;;;;19.40;5.60;;;8.90;99.90;;;;;;5017037;28;20804;-91
2023/12/18 04:53:59;;;;;;;20.97;5.37;;;9.00;99.90;;;;;;5016565;28;20401;-93
2023/12/18 04:56:25;;;;;;;18.13;5.18;;;9.40;99.90;;;;;;5015855;28;20425;-90
2023/12/18 04:58:51;;;;;;;17.50;5.78;;;9.30;99.90;;;;;;5016008;28;20413;-91
2023/12/18 05:01:17;;;;;;;19.20;5.55;;;9.10;99.90;;;;;;5015419;28;20405;-90
2023/12/18 05:03:43;;;;;;;18.95;5.72;;;9.10;99.90;;;;;;5016608;28;20428;-91
2023/12/18 05:06:23;;;;;;;16.42;5.60;;;9.00;99.90;;;;;;5032233;28;20406;-93
2023/12/18 05:08:49;;;;;;;18.55;6.15;;;9.10;99.90;;;;;;5016999;28;20440;-91
2023/12/18 05:11:19;;;;;;;18.50;6.40;;;9.20;99.90;;;;;;5032912;28;20408;-91
2023/12/18 05:13:45;;;;;;;17.33;6.05;;;9.60;99.90;;;;;;5015800;28;20453;-91
2023/12/18 05:16:12;;;;;;;20.53;6.33;;;9.20;99.90;;;;;;5032882;28;20827;-92
2023/12/18 05:18:38;;;;;;;17.90;6.35;;;9.10;99.90;;;;;;5015121;28;20417;-91
2023/12/18 05:21:04;;;;;;;20.02;6.45;;;9.10;99.90;;;;;;5016320;28;20421;-90
2023/12/18 05:23:30;;;;;;;20.20;7.10;;;9.20;99.90;;;;;;5015601;28;20410;-92
2023/12/18 05:25:55;;;;;;;22.65;8.30;;;9.10;99.90;;;;;;5015915;28;20459;-92
2023/12/18 05:28:21;;;;;;;20.70;7.40;;;9.10;99.90;;;;;;5015514;28;20803;-91
2023/12/18 05:30:47;;;;;;;17.25;7.93;;;9.10;99.90;;;;;;5015577;28;20949;-89
2023/12/18 05:33:13;;;;;;;20.87;9.27;;;9.10;99.90;;;;;;5016334;28;20489;-89
2023/12/18 05:35:38;;;;;;;22.13;8.75;;;9.20;99.90;;;;;;5014667;28;20901;-91
2023/12/18 05:38:06;;;;;;;24.90;9.77;;;9.00;99.90;;;;;;5016067;28;20967;-91
2023/12/18 05:40:32;;;;;;;21.75;11.43;;;9.10;99.90;;;;;;5015453;28;20405;-91
2023/12/18 05:42:57;;;;;;;23.33;11.90;;;9.50;99.90;;;;;;5016417;28;20420;-91
2023/12/18 05:45:23;;;;;;;24.47;12.83;;;8.70;99.90;;;;;;5015373;28;20401;-90
2023/12/18 05:47:49;;;;;;;25.80;12.90;;;9.00;99.90;;;;;;5015346;28;20479;-89
2023/12/18 05:50:14;;;;;;;24.08;13.15;;;9.00;99.90;;;;;;5015706;28;20407;-91
2023/12/18 05:52:40;;;;;;;25.53;12.97;;;8.80;99.90;;;;;;5014900;28;20412;-92
2023/12/18 05:55:07;;;;;;;25.17;13.60;;;8.80;99.90;;;;;;5016099;28;20398;-92
2023/12/18 05:57:33;;;;;;;24.52;13.32;;;8.80;99.90;;;;;;5047474;28;20429;-91
2023/12/18 05:59:58;;;;;;;25.67;13.88;;;8.80;99.90;;;;;;5015377;28;20485;-91
2023/12/18 06:02:24;;;;;;;24.67;13.97;;;8.90;99.90;;;;;;5014752;28;20417;-93
2023/12/18 06:04:49;;;;;;;27.17;14.67;;;8.90;99.90;;;;;;5015685;28;20501;-89
2023/12/18 06:07:15;;;;;;;27.52;14.20;;;8.80;99.90;;;;;;5014854;28;20410;-90
2023/12/18 06:09:41;;;;;;;28.97;15.70;;;9.00;99.90;;;;;;5014540;28;20410;-92
2023/12/18 06:12:07;;;;;;;25.63;15.02;;;8.80;99.90;;;;;;5015468;28;20443;-92
2023/12/18 06:14:32;;;;;;;26.98;15.65;;;8.70;99.90;;;;;;5014571;28;20440;-91
2023/12/18 06:16:58;;;;;;;26.08;15.32;;;8.90;99.90;;;;;;5014475;28;20947;-93
2023/12/18 06:19:24;;;;;;;25.57;16.03;;;8.70;99.90;;;;;;5014601;28;20440;-93
2023/12/18 06:21:49;;;;;;;23.17;13.85;;;8.70;99.90;;;;;;5015553;28;20412;-91
2023/12/18 06:24:15;;;;;;;27.90;15.57;;;8.90;99.90;;;;;;5030551;28;20497;-92
2023/12/18 06:26:41;;;;;;;26.80;15.33;;;8.70;99.90;;;;;;5063919;28;20401;-91
2023/12/18 06:29:07;;;;;;;22.48;15.18;;;8.70;99.90;;;;;;5014533;28;20463;-92
2023/12/18 06:31:33;;;;;;;28.85;15.48;;;8.70;99.90;;;;;;5008543;28;20398;-93
2023/12/18 06:33:59;;;;;;;24.92;15.23;;;8.70;99.90;;;;;;5031660;28;20409;-93
2023/12/18 06:36:24;;;;;;;27.77;15.65;;;8.90;99.90;;;;;;5013278;28;20951;-89
2023/12/18 06:38:50;;;;;;;29.00;15.90;;;9.10;99.90;;;;;;5046861;28;20804;-91
2023/12/18 06:41:16;;;;;;;28.53;16.20;;;8.80;99.90;;;;;;5014110;28;21003;-91
2023/12/18 06:43:42;;;;;;;27.52;16.48;;;8.70;99.90;;;;;;5031350;28;20781;-92
2023/12/18 06:46:09;;;;;;;27.40;17.17;;;8.80;99.90;;;;;;5013608;28;20400;-90
2023/12/18 06:48:35;;;;;;;31.42;18.23;;;8.90;99.90;;;;;;5046917;28;20942;-92
2023/12/18 06:51:00;;;;;;;32.03;18.27;;;8.70;99.90;;;;;;5047876;28;20456;-89
2023/12/18 06:53:26;;;;;;;29.83;16.97;;;9.50;99.90;;;;;;5045681;28;20479;-91
2023/12/18 06:55:52;;;;;;;32.70;18.70;;;8.50;99.90;;;;;;5048354;28;20405;-92
2023/12/18 06:58:17;;;;;;;29.90;18.55;;;8.60;99.90;;;;;;5014295;28;20435;-94
2023/12/18 07:00:46;;;;;;;30.63;19.27;;;8.60;99.90;;;;;;5015251;28;21114;-93
2023/12/18 07:03:11;;;;;;;28.90;18.75;;;8.60;99.90;;;;;;5013896;28;20402;-91
2023/12/18 07:05:37;;;;;;;36.80;19.52;;;8.70;99.90;;;;;;5031321;28;20485;-92
2023/12/18 07:08:03;;;;;;;28.80;18.90;;;8.80;99.90;;;;;;5014612;28;20406;-91
2023/12/18 07:10:29;;;;;;;29.38;19.40;;;8.60;99.90;;;;;;5047061;28;20473;-91
2023/12/18 07:12:54;;;;;;;29.25;18.52;;;8.80;99.90;;;;;;5030925;28;20409;-92
2023/12/18 07:15:23;;;;;;;31.17;19.90;;;9.20;99.90;;;;;;5012468;28;20512;-91
2023/12/18 07:17:49;;;;;;;31.73;20.08;;;8.70;99.90;;;;;;5032351;28;20838;-91
2023/12/18 07:20:15;;;;;;;30.50;19.63;;;8.70;99.90;;;;;;5014217;28;20461;-92
2023/12/18 07:22:41;;;;;;;31.07;18.73;;;8.60;99.90;;;;;;5030142;28;20463;-92
2023/12/18 07:25:09;;;;;;;33.88;20.60;;;8.90;99.90;;;;;;5013779;28;20764;-91
2023/12/18 07:27:35;;;;;;;32.42;19.50;;;8.60;99.90;;;;;;5013689;28;20493;-92
2023/12/18 07:30:05;;;;;;;27.92;19.48;;;8.60;99.90;;;;;;5016123;28;20405;-92
2023/12/18 07:32:31;;;;;;;31.95;19.17;;;8.60;99.90;;;;;;5014348;28;20414;-92
2023/12/18 07:34:59;;;;;;;30.98;19.48;;;8.90;99.90;;;;;;5013987;28;20405;-93
2023/12/18 07:37:27;;;;;;;29.70;19.08;;;8.60;99.90;;;;;;5012868;28;20627;-90
2023/12/18 07:39:53;;;;;;;34.45;19.38;;;8.70;99.90;;;;;;5013562;28;20440;-92
2023/12/18 07:42:19;;;;;;;29.10;19.05;;;8.70;99.90;;;;;;5013456;28;20406;-90
2023/12/18 07:44:44;;;;;;;30.00;18.30;;;8.70;99.90;;;;;;5029792;28;20397;-92
2023/12/18 07:47:10;;;;;;;29.25;17.65;;;8.70;99.90;;;;;;5013954;28;20773;-93
2023/12/18 07:49:36;;;;;;;29.42;17.80;;;8.80;99.90;;;;;;5012678;28;20417;-91
2023/12/18 07:52:02;;;;;;;30.30;17.70;;;9.00;99.90;;;;;;5013924;28;20412;-93
2023/12/18 07:54:27;;;;;;;32.47;17.87;;;8.70;99.90;;;;;;5012757;28;20405;-92
2023/12/18 07:56:53;;;;;;;30.98;17.50;;;8.70;99.90;;;;;;5013393;28;20430;-91
2023/12/18 07:59:20;;;;;;;31.48;17.75;;;8.80;99.90;;;;;;5012952;28;20397;-89
2023/12/18 08:01:46;;;;;;;33.13;17.73;;;8.80;99.90;;;;;;5013373;28;20413;-91
2023/12/18 08:04:11;;;;;;;31.50;17.83;;;8.80;99.90;;;;;;5013484;28;20409;-92
2023/12/18 08:06:37;;;;;;;30.57;17.70;;;8.80;99.90;;;;;;5012982;28;20439;-90
2023/12/18 08:09:03;;;;;;;31.17;16.92;;;9.20;99.90;;;;;;5013749;28;20402;-91
2023/12/18 08:11:29;;;;;;;29.33;17.42;;;9.10;99.90;;;;;;5012243;28;20451;-90
2023/12/18 08:13:54;;;;;;;27.20;16.83;;;9.00;99.90;;;;;;5014109;28;20401;-90
2023/12/18 08:16:20;;;;;;;35.73;18.13;;;8.90;99.90;;;;;;5012321;28;20903;-91
2023/12/18 08:18:47;;;;;;;29.35;17.55;;;8.80;99.90;;;;;;5012994;28;20413;-91
2023/12/18 08:21:14;;;;;;;29.90;17.83;;;9.20;99.90;;;;;;5012862;28;20406;-91
2023/12/18 08:23:40;;;;;;;30.70;17.35;;;8.90;99.90;;;;;;5012852;28;20401;-91
2023/12/18 08:26:06;;;;;;;29.67;17.15;;;9.00;99.90;;;;;;5013476;28;20465;-91
2023/12/18 08:28:32;;;;;;;27.40;17.53;;;8.90;99.90;;;;;;5028814;28;20426;-91
2023/12/18 08:30:57;;;;;;;31.15;18.20;;;9.00;99.90;;;;;;5013479;28;20402;-92
2023/12/18 08:33:23;;;;;;;32.45;18.50;;;8.90;99.90;;;;;;5014541;28;20492;-92
2023/12/18 08:35:49;;;;;;;31.10;17.03;;;9.00;99.90;;;;;;5033864;28;20896;-92
2023/12/18 08:38:15;;;;;;;30.02;18.42;;;8.80;99.90;;;;;;5049423;28;20433;-89
2023/12/18 08:40:41;;;;;;;30.27;18.57;;;9.00;99.90;;;;;;5016790;28;20409;-91
2023/12/18 08:43:06;;;;;;;31.13;18.37;;;9.10;99.90;;;;;;5016493;28;20938;-91
2023/12/18 08:45:32;;;;;;;30.88;18.08;;;9.00;99.90;;;;;;5016000;28;20488;-92
2023/12/18 08:47:59;;;;;;;28.45;18.55;;;9.00;99.90;;;;;;5017139;28;20405;-91
2023/12/18 08:50:26;;;;;;;30.30;18.93;;;8.90;99.90;;;;;;5015888;28;20836;-90
2023/12/18 08:52:52;;;;;;;32.07;19.63;;;9.10;99.90;;;;;;5016814;28;20405;-89
2023/12/18 08:55:19;;;;;;;32.90;20.30;;;9.00;99.90;;;;;;5015828;28;20417;-92
2023/12/18 08:57:45;;;;;;;29.00;19.55;;;9.60;99.90;;;;;;5016480;28;20483;-93
2023/12/18 09:00:12;;;;;;;32.97;20.20;;;9.00;99.90;;;;;;5016064;28;20397;-92
2023/12/18 09:02:38;;;;;;;28.83;19.55;;;9.00;99.90;;;;;;5015851;28;20414;-91
2023/12/18 09:05:04;;;;;;;32.27;20.27;;;8.70;99.90;;;;;;5016679;28;20497;-92
2023/12/18 09:07:29;;;;;;;32.83;21.53;;;9.00;99.90;;;;;;5015468;28;20401;-91
2023/12/18 09:09:55;;;;;;;32.70;21.40;;;9.00;99.90;;;;;;5016330;28;20421;-91
2023/12/18 09:12:21;;;;;;;33.60;21.30;;;9.20;99.90;;;;;;5015218;28;20416;-91
2023/12/18 09:14:47;;;;;;;34.50;20.98;;;9.10;99.90;;;;;;5032718;28;20428;-87
2023/12/18 09:17:12;;;;;;;32.13;20.27;;;9.00;99.90;;;;;;5015247;28;20904;-90
2023/12/18 09:19:38;;;;;;;30.63;20.15;;;9.30;99.90;;;;;;5015951;28;20417;-91
2023/12/18 09:22:03;;;;;;;32.15;20.02;;;9.00;99.90;;;;;;5016219;28;20437;-93
2023/12/18 09:24:29;;;;;;;34.57;20.20;;;9.50;99.90;;;;;;5024167;28;20411;-91
2023/12/18 09:26:55;;;;;;;32.67;20.83;;;9.00;99.90;;;;;;5036150;28;20487;-92
2023/12/18 09:29:22;;;;;;;28.17;19.67;;;9.10;99.90;;;;;;5067587;28;20456;-90
2023/12/18 09:31:49;;;;;;;34.03;19.50;;;9.10;99.90;;;;;;5069434;28;20441;-93
2023/12/18 09:34:15;;;;;;;31.45;20.55;;;9.10;99.90;;;;;;5035030;28;20773;-92
2023/12/18 09:36:41;;;;;;;31.15;20.15;;;9.20;99.90;;;;;;5068906;28;20431;-91
2023/12/18 09:39:06;;;;;;;31.30;20.65;;;9.10;99.90;;;;;;5068598;28;20934;-92
2023/12/18 09:41:32;;;;;;;32.20;19.90;;;9.10;99.90;;;;;;5017541;28;20480;-92
2023/12/18 09:43:59;;;;;;;32.53;20.70;;;9.20;99.90;;;;;;5026752;28;20445;-91
2023/12/18 09:46:25;;;;;;;30.98;20.02;;;9.20;99.90;;;;;;5047075;28;20425;-88
2023/12/18 09:48:54;;;;;;;32.40;19.47;;;9.20;99.90;;;;;;5031683;28;20406;-90
2023/12/18 09:51:22;;;;;;;28.40;19.77;;;9.20;99.90;;;;;;5047326;28;20390;-89
2023/12/18 09:53:49;;;;;;;29.23;20.17;;;9.20;99.90;;;;;;5015676;28;20996;-94
2023/12/18 09:56:16;;;;;;;35.42;21.05;;;9.40;99.90;;;;;;5014684;28;20406;-88
2023/12/18 09:58:43;;;;;;;31.73;21.23;;;9.20;99.90;;;;;;5030770;28;20452;-92
2023/12/18 10:01:10;;;;;;;31.25;21.10;;;9.30;99.90;;;;;;5014664;28;20761;-90
2023/12/18 10:03:36;;;;;;;30.70;20.02;;;9.30;99.90;;;;;;5013848;28;20413;-91
2023/12/18 10:06:03;;;;;;;32.70;21.30;;;9.30;99.90;;;;;;5015283;28;20409;-92
2023/12/18 10:08:29;;;;;;;31.63;19.42;;;9.40;99.90;;;;;;5013854;28;20413;-90
2023/12/18 10:10:54;;;;;;;29.60;20.08;;;9.20;99.90;;;;;;5015873;28;20397;-91
2023/12/18 10:13:20;;;;;;;30.97;18.63;;;9.70;99.90;;;;;;5013388;28;20405;-92
2023/12/18 10:15:45;;;;;;;31.23;19.97;;;9.70;99.90;;;;;;5015034;28;20425;-90
2023/12/18 10:18:11;;;;;;;28.60;19.45;;;9.80;99.90;;;;;;5013744;28;21093;-93
2023/12/18 10:20:39;;;;;;;30.13;19.73;;;10.00;99.90;;;;;;5047927;28;20819;-91
2023/12/18 10:23:05;;;;;;;30.42;19.15;;;9.60;99.90;;;;;;5048505;28;20405;-92
2023/12/18 10:25:33;;;;;;;32.35;21.27;;;9.60;99.90;;;;;;5046859;28;20409;-93
2023/12/18 10:27:59;;;;;;;32.17;21.07;;;9.60;99.90;;;;;;5015603;28;20833;-93
2023/12/18 10:30:26;;;;;;;29.33;19.87;;;10.00;99.90;;;;;;5014087;28;20408;-93
2023/12/18 10:32:52;;;;;;;29.27;19.00;;;8.90;99.90;;;;;;5015203;28;20410;-93
2023/12/18 10:35:18;;;;;;;33.80;20.75;;;9.50;99.90;;;;;;5013682;28;20496;-92
2023/12/18 10:37:54;;;;;;;31.55;19.65;;;9.40;99.90;;;;;;5014480;28;20513;-92
2023/12/18 10:40:23;;;;;;;29.88;19.00;;;9.50;99.90;;;;;;5014767;28;20413;-93
2023/12/18 10:43:06;;;;;;;33.45;19.33;;;9.80;99.90;;;;;;5013793;28;20444;-91
2023/12/18 10:45:34;;;;;;;30.08;19.58;;;9.40;99.90;;;;;;5014520;28;20443;-94
2023/12/18 10:48:00;;;;;;;28.23;19.83;;;9.60;99.90;;;;;;5025377;28;20424;-92
2023/12/18 10:50:30;;;;;;;29.05;19.45;;;9.50;99.90;;;;;;5014295;28;20412;-90
2023/12/18 10:52:58;;;;;;;31.13;20.40;;;9.60;99.90;;;;;;5014039;28;20412;-92
2023/12/18 10:55:26;;;;;;;31.38;19.85;;;9.70;99.90;;;;;;5013214;28;20408;-92
2023/12/18 10:57:52;;;;;;;30.02;20.15;;;9.90;99.90;;;;;;5064172;28;20492;-93
2023/12/18 11:00:18;;;;;;;29.67;18.77;;;9.30;99.90;;;;;;5013726;28;20750;-91
2023/12/18 11:02:44;;;;;;;29.27;19.70;;;9.40;99.90;;;;;;5047626;28;20421;-94
2023/12/18 11:05:12;;;;;;;33.47;20.13;;;9.40;99.90;;;;;;5031436;28;20480;-90
2023/12/18 11:07:40;;;;;;;30.03;19.27;;;9.40;99.90;;;;;;5014735;28;21044;-90
2023/12/18 11:10:06;;;;;;;30.33;19.17;;;9.80;99.90;;;;;;5046587;28;20417;-94
2023/12/18 11:12:34;;;;;;;29.08;19.42;;;9.50;99.90;;;;;;5012585;28;20902;-92
2023/12/18 11:15:31;;;;;;;24.42;17.65;;;9.50;99.90;;;;;;5013555;28;20405;-94
2023/12/18 11:18:08;;;;;;;29.60;17.83;;;9.50;99.90;;;;;;5012632;28;20433;-93
2023/12/18 11:20:37;;;;;;;32.65;19.27;;;9.60;99.90;;;;;;5014104;28;20496;-93
2023/12/18 11:23:03;;;;;;;31.57;18.60;;;9.20;99.90;;;;;;5013298;28;20413;-93
2023/12/18 11:25:36;;;;;;;27.48;17.60;;;9.50;99.90;;;;;;5013383;28;20769;-93
2023/12/18 11:28:04;;;;;;;27.45;16.45;;;9.80;99.90;;;;;;5014586;28;20418;-92
2023/12/18 11:30:40;;;;;;;28.52;17.90;;;9.50;99.90;;;;;;5023816;28;20907;-92
2023/12/18 11:33:09;;;;;;;28.27;17.48;;;9.70;99.90;;;;;;5033850;28;20534;-94
2023/12/18 11:35:35;;;;;;;28.00;17.07;;;9.70;99.90;;;;;;5032479;28;20406;-90
2023/12/18 11:38:08;;;;;;;27.83;16.83;;;9.60;99.90;;;;;;5049837;28;20818;-92
2023/12/18 11:40:36;;;;;;;31.00;17.90;;;9.90;99.90;;;;;;5066231;28;20497;-93
2023/12/18 11:43:03;;;;;;;26.33;17.25;;;9.60;99.90;;;;;;5066363;28;20407;-93
2023/12/18 11:45:30;;;;;;;27.08;18.48;;;9.60;99.90;;;;;;5033520;28;20462;-90
2023/12/18 11:48:00;;;;;;;30.93;18.70;;;9.70;99.90;;;;;;5048696;28;20491;-92
2023/12/18 11:50:27;;;;;;;30.25;18.80;;;9.60;99.90;;;;;;5066747;28;20450;-91
2023/12/18 11:52:59;;;;;;;33.00;19.33;;;9.90;99.90;;;;;;5065277;28;20400;-91
2023/12/18 11:55:37;;;;;;;28.67;18.45;;;9.60;99.90;;;;;;5066265;28;20423;-94
2023/12/18 11:58:04;;;;;;;30.50;19.17;;;9.70;99.90;;;;;;5066211;28;20477;-92
2023/12/18 12:00:30;;;;;;;27.25;17.42;;;9.60;99.90;;;;;;5082590;28;20898;-94
2023/12/18 12:02:58;;;;;;;29.17;17.95;;;9.90;99.90;;;;;;5066981;28;20895;-91
2023/12/18 12:05:24;;;;;;;30.60;17.52;;;9.70;99.90;;;;;;5031952;28;21066;-90
2023/12/18 12:07:51;;;;;;;24.70;16.35;;;9.80;99.90;;;;;;5030301;28;20405;-91
2023/12/18 12:10:17;;;;;;;26.17;16.70;;;9.70;99.90;;;;;;5017062;28;20419;-93
2023/12/18 12:12:43;;;;;;;27.80;18.00;;;9.80;99.90;;;;;;5016981;28;20406;-92
2023/12/18 12:15:10;;;;;;;27.58;17.52;;;9.90;99.90;;;;;;5016711;28;20416;-93
2023/12/18 12:17:36;;;;;;;26.67;17.10;;;10.10;99.90;;;;;;5016362;28;20440;-86
2023/12/18 12:20:07;;;;;;;27.08;17.17;;;9.80;99.90;;;;;;5017314;28;20446;-92
2023/12/18 12:22:33;;;;;;;25.07;16.60;;;9.80;99.90;;;;;;5032410;28;20413;-87
2023/12/18 12:24:59;;;;;;;28.50;17.85;;;9.90;99.90;;;;;;5031210;28;20880;-93
2023/12/18 12:27:25;;;;;;;28.60;17.63;;;10.00;99.90;;;;;;5052281;28;20487;-93
2023/12/18 12:29:51;;;;;;;29.30;18.13;;;9.80;99.90;;;;;;5070295;28;20438;-91
2023/12/18 12:32:18;;;;;;;26.10;18.40;;;10.00;99.90;;;;;;5061318;28;20908;-91
2023/12/18 12:34:46;;;;;;;31.52;18.63;;;10.10;99.90;;;;;;5033040;28;20749;-93
2023/12/18 12:37:12;;;;;;;25.98;17.45;;;10.00;99.90;;;;;;5016888;28;20451;-89